Time;durP1;ratioP1;P1;durP2;ratioP2;P2;SDS_P1;SDS_P2;PMS_P1;PMS_P2;Temp;Humidity;BMP_temperature;BMP_pressure;BME280_temperature;BME280_humidity;BME280_pressure;Samples;Min_cycle;Max_cycle;Signal;HPM_P1;HPM_P2
2024/01/03 00:01:26;;;;;;;31.20;4.87;;;11.20;99.90;;;;;;5084403;28;20322;-59
2024/01/03 00:03:58;;;;;;;23.17;3.97;;;11.10;99.90;;;;;;5081614;27;20325;-59
2024/01/03 00:06:33;;;;;;;29.50;4.53;;;11.10;99.90;;;;;;5084341;28;20245;-59
2024/01/03 00:09:03;;;;;;;19.63;4.33;;;11.10;99.90;;;;;;5087803;28;20226;-60
2024/01/03 00:11:34;;;;;;;27.93;4.33;;;11.00;99.90;;;;;;5084117;28;20219;-59
2024/01/03 00:14:29;;;;;;;22.73;4.13;;;11.00;99.90;;;;;;5088001;28;20235;-59
2024/01/03 00:17:01;;;;;;;21.30;3.67;;;10.90;99.90;;;;;;5087282;28;20208;-59
2024/01/03 00:19:30;;;;;;;17.53;3.50;;;10.90;99.90;;;;;;5086684;28;20588;-59
2024/01/03 00:21:58;;;;;;;21.97;3.97;;;10.90;99.90;;;;;;5084884;28;20227;-59
2024/01/03 00:24:29;;;;;;;22.37;4.13;;;11.00;99.90;;;;;;5088196;28;20251;-59
2024/01/03 00:26:58;;;;;;;21.97;3.90;;;11.00;99.90;;;;;;5086744;28;20238;-59
2024/01/03 00:30:03;;;;;;;22.33;3.97;;;11.00;99.90;;;;;;5086384;28;20235;-59
2024/01/03 00:32:34;;;;;;;21.70;4.43;;;11.00;99.90;;;;;;5042699;28;20640;-59
2024/01/03 00:35:12;;;;;;;16.90;3.13;;;11.00;99.90;;;;;;5081138;28;20257;-59
2024/01/03 00:37:43;;;;;;;24.60;3.83;;;11.00;99.90;;;;;;5090857;28;20812;-59
2024/01/03 00:40:52;;;;;;;16.10;3.57;;;11.00;99.90;;;;;;5087102;28;20223;-59
2024/01/03 00:43:21;;;;;;;24.93;4.30;;;11.00;99.90;;;;;;5086921;28;20216;-59
2024/01/03 00:45:50;;;;;;;15.23;3.70;;;11.00;99.90;;;;;;5089092;28;20223;-59
2024/01/03 00:48:19;;;;;;;18.60;3.47;;;10.90;99.90;;;;;;5084490;28;20227;-59
2024/01/03 00:50:49;;;;;;;13.57;3.43;;;10.90;99.90;;;;;;5087783;27;20234;-59
2024/01/03 00:53:17;;;;;;;19.93;3.73;;;10.80;99.90;;;;;;5088145;28;20194;-59
2024/01/03 00:55:47;;;;;;;19.73;4.43;;;10.80;99.90;;;;;;5091151;28;20194;-59
2024/01/03 00:58:16;;;;;;;12.13;3.23;;;10.80;99.90;;;;;;5089164;28;20636;-59
2024/01/03 01:00:44;;;;;;;21.43;3.53;;;10.70;99.90;;;;;;5087084;28;20230;-59
2024/01/03 01:03:13;;;;;;;15.90;3.07;;;10.60;99.90;;;;;;5085289;28;20226;-59
2024/01/03 01:05:43;;;;;;;17.33;3.40;;;10.60;99.90;;;;;;5080851;28;20223;-59
2024/01/03 01:08:11;;;;;;;14.40;3.20;;;10.60;99.90;;;;;;5086076;28;20192;-59
2024/01/03 01:10:39;;;;;;;19.37;3.60;;;10.60;99.90;;;;;;5084688;28;20179;-59
2024/01/03 01:13:09;;;;;;;15.63;3.80;;;10.60;99.90;;;;;;5090069;27;20214;-58
2024/01/03 01:15:37;;;;;;;20.37;3.40;;;10.70;99.90;;;;;;5083173;28;20231;-60
2024/01/03 01:18:05;;;;;;;16.73;3.53;;;10.70;99.90;;;;;;5079437;28;20699;-60
2024/01/03 01:20:34;;;;;;;20.03;3.30;;;10.60;99.90;;;;;;5078795;28;20277;-59
2024/01/03 01:23:03;;;;;;;21.47;3.33;;;10.60;99.90;;;;;;5084064;28;20202;-59
2024/01/03 01:25:31;;;;;;;12.93;3.33;;;10.60;99.90;;;;;;5082045;28;20200;-60
2024/01/03 01:27:59;;;;;;;16.37;2.87;;;10.60;99.90;;;;;;5082866;28;20219;-60
2024/01/03 01:30:29;;;;;;;20.07;3.37;;;10.70;99.90;;;;;;5082041;28;20230;-60
2024/01/03 01:32:57;;;;;;;18.27;3.20;;;10.70;99.90;;;;;;5079045;27;20588;-58
2024/01/03 01:35:25;;;;;;;17.93;3.53;;;10.70;99.90;;;;;;5085897;28;20235;-60
2024/01/03 01:37:54;;;;;;;15.77;3.60;;;10.70;99.90;;;;;;5082796;28;20219;-59
2024/01/03 01:40:22;;;;;;;16.43;3.17;;;10.70;99.90;;;;;;5084723;28;20215;-59
2024/01/03 01:42:50;;;;;;;14.40;3.30;;;10.60;99.90;;;;;;5079275;28;20732;-59
2024/01/03 01:45:18;;;;;;;18.67;2.93;;;10.50;99.90;;;;;;5087311;28;20218;-59
2024/01/03 01:47:48;;;;;;;15.37;3.20;;;10.50;99.90;;;;;;5082092;28;20265;-59
2024/01/03 01:50:17;;;;;;;19.03;3.20;;;10.50;99.90;;;;;;5086139;28;20518;-60
2024/01/03 01:52:47;;;;;;;19.33;3.97;;;10.40;99.90;;;;;;5081825;28;20684;-60
2024/01/03 01:55:16;;;;;;;10.30;2.83;;;10.40;99.90;;;;;;5084608;28;20586;-59
2024/01/03 01:57:45;;;;;;;19.90;3.80;;;10.30;99.90;;;;;;5078815;28;20220;-59
2024/01/03 02:00:14;;;;;;;24.17;3.67;;;10.30;99.90;;;;;;5087276;28;20243;-59
2024/01/03 02:02:44;;;;;;;19.70;3.40;;;10.30;99.90;;;;;;5085929;28;20220;-59
2024/01/03 02:05:14;;;;;;;18.13;3.40;;;10.30;99.90;;;;;;5087071;28;20594;-60
2024/01/03 02:07:42;;;;;;;24.03;3.80;;;10.30;99.90;;;;;;5082104;28;20183;-59
2024/01/03 02:10:11;;;;;;;20.37;3.60;;;10.30;99.90;;;;;;5079823;28;20240;-59
2024/01/03 02:12:39;;;;;;;13.57;3.37;;;10.30;99.90;;;;;;5078348;27;20226;-59
2024/01/03 02:15:08;;;;;;;15.77;3.43;;;10.30;99.90;;;;;;5083631;28;20616;-60
2024/01/03 02:17:39;;;;;;;18.50;3.40;;;10.30;99.90;;;;;;5085563;28;20242;-60
2024/01/03 02:20:08;;;;;;;17.47;3.10;;;10.30;99.90;;;;;;5083698;28;20206;-59
2024/01/03 02:22:38;;;;;;;17.53;3.43;;;10.30;99.90;;;;;;5079172;28;20192;-58
2024/01/03 02:25:10;;;;;;;17.43;2.87;;;10.30;99.90;;;;;;5085797;28;20219;-59
2024/01/03 02:27:39;;;;;;;12.63;2.70;;;10.30;99.90;;;;;;5079699;28;20211;-60
2024/01/03 02:30:08;;;;;;;14.27;2.63;;;10.30;99.90;;;;;;5085050;28;20226;-60
2024/01/03 02:32:37;;;;;;;9.87;2.70;;;10.30;99.90;;;;;;5081809;28;20752;-59
2024/01/03 02:35:06;;;;;;;14.90;3.00;;;10.30;99.90;;;;;;5077464;28;20191;-59
2024/01/03 02:37:35;;;;;;;18.27;3.13;;;10.30;99.90;;;;;;5081059;28;20211;-60
2024/01/03 02:40:06;;;;;;;20.13;3.50;;;10.20;99.90;;;;;;5080689;28;20214;-60
2024/01/03 02:42:34;;;;;;;16.40;3.20;;;10.10;99.90;;;;;;5081607;28;20230;-60
2024/01/03 02:45:02;;;;;;;23.60;3.50;;;10.00;99.90;;;;;;5080041;28;20223;-60
2024/01/03 02:47:30;;;;;;;15.73;2.97;;;10.00;99.90;;;;;;5082157;28;20232;-59
2024/01/03 02:49:58;;;;;;;11.37;2.70;;;10.00;99.90;;;;;;5082402;28;20206;-60
2024/01/03 02:52:27;;;;;;;10.97;2.27;;;9.90;99.90;;;;;;5081633;28;20681;-60
2024/01/03 02:54:56;;;;;;;9.80;2.20;;;9.90;99.90;;;;;;5081416;28;20244;-60
2024/01/03 02:57:26;;;;;;;11.43;2.63;;;9.80;99.90;;;;;;5083031;28;20234;-60
2024/01/03 02:59:54;;;;;;;11.03;2.53;;;9.80;99.90;;;;;;5081083;28;20223;-59
2024/01/03 03:02:22;;;;;;;9.17;2.57;;;9.80;99.90;;;;;;5083555;28;20276;-59
2024/01/03 03:04:51;;;;;;;12.90;2.20;;;9.80;99.90;;;;;;5082964;28;20247;-60
2024/01/03 03:07:19;;;;;;;7.17;2.17;;;9.80;99.90;;;;;;5080503;28;20306;-60
2024/01/03 03:09:47;;;;;;;8.57;2.13;;;9.80;99.90;;;;;;5084593;28;20254;-59
2024/01/03 03:12:16;;;;;;;11.50;2.20;;;9.80;99.90;;;;;;5081151;28;20215;-60
2024/01/03 03:14:45;;;;;;;3.67;1.70;;;9.80;99.90;;;;;;5076971;28;20215;-59
2024/01/03 03:17:14;;;;;;;14.53;2.40;;;9.70;99.90;;;;;;5082710;28;20222;-60
2024/01/03 03:19:43;;;;;;;13.73;2.27;;;9.70;99.90;;;;;;5086456;28;20230;-60
2024/01/03 03:22:13;;;;;;;13.40;2.40;;;9.60;99.90;;;;;;5081954;28;20223;-60
2024/01/03 03:24:41;;;;;;;11.63;2.17;;;9.60;99.90;;;;;;5084677;28;20251;-60
2024/01/03 03:27:09;;;;;;;3.90;1.90;;;9.60;99.90;;;;;;5081635;28;20227;-60
2024/01/03 03:29:38;;;;;;;8.60;2.60;;;9.50;99.90;;;;;;5083295;28;20227;-60
2024/01/03 03:32:10;;;;;;;16.47;2.40;;;9.50;99.90;;;;;;5081188;28;20220;-59
2024/01/03 03:34:38;;;;;;;11.50;2.63;;;9.50;99.90;;;;;;5080333;28;20248;-60
2024/01/03 03:37:06;;;;;;;8.53;2.50;;;9.60;99.90;;;;;;5083267;28;20234;-60
2024/01/03 03:39:34;;;;;;;11.27;2.10;;;9.70;99.90;;;;;;5082054;28;20215;-60
2024/01/03 03:42:03;;;;;;;10.97;2.40;;;9.70;99.90;;;;;;5081966;28;20231;-60
2024/01/03 03:44:31;;;;;;;8.80;2.47;;;9.70;99.90;;;;;;5086981;28;20601;-60
2024/01/03 03:46:59;;;;;;;17.00;2.83;;;9.70;99.90;;;;;;5085227;28;20569;-60
2024/01/03 03:49:29;;;;;;;9.80;2.50;;;9.70;99.90;;;;;;5087054;28;20258;-60
2024/01/03 03:51:57;;;;;;;12.07;3.00;;;9.70;99.90;;;;;;5088395;28;20215;-60
2024/01/03 03:54:25;;;;;;;11.43;2.40;;;9.70;99.90;;;;;;5083900;28;20576;-59
2024/01/03 03:56:53;;;;;;;17.20;3.00;;;9.70;99.90;;;;;;5085901;28;20216;-59
2024/01/03 03:59:22;;;;;;;16.40;2.83;;;9.70;99.90;;;;;;5083517;27;20705;-60
2024/01/03 04:01:50;;;;;;;15.77;3.17;;;9.70;99.90;;;;;;5087776;28;20213;-60
2024/01/03 04:04:19;;;;;;;14.53;2.87;;;9.70;99.90;;;;;;5079262;28;20632;-59
2024/01/03 04:06:48;;;;;;;11.83;2.40;;;9.80;99.90;;;;;;5085911;28;20349;-60
2024/01/03 04:09:19;;;;;;;11.13;2.70;;;9.80;99.90;;;;;;5082857;28;20223;-59
2024/01/03 04:11:47;;;;;;;15.37;3.13;;;9.70;99.90;;;;;;5085956;28;20220;-60
2024/01/03 04:14:16;;;;;;;12.60;2.53;;;9.70;99.90;;;;;;5083095;27;20191;-59
2024/01/03 04:16:45;;;;;;;16.83;2.93;;;9.70;99.90;;;;;;5086605;28;20626;-60
2024/01/03 04:19:13;;;;;;;10.07;2.60;;;9.60;99.90;;;;;;5085482;28;20219;-59
2024/01/03 04:21:41;;;;;;;20.43;3.43;;;9.60;99.90;;;;;;5086385;28;20211;-58
2024/01/03 04:24:11;;;;;;;16.90;3.33;;;9.60;99.90;;;;;;5086765;28;20245;-59
2024/01/03 04:26:39;;;;;;;13.30;2.80;;;9.60;99.90;;;;;;5083514;28;20226;-59
2024/01/03 04:29:08;;;;;;;15.23;2.70;;;9.50;99.90;;;;;;5088901;28;20175;-59
2024/01/03 04:31:36;;;;;;;15.13;2.83;;;9.40;99.90;;;;;;5083341;28;20195;-59
2024/01/03 04:34:04;;;;;;;10.10;2.40;;;9.40;99.90;;;;;;5084579;27;20715;-59
2024/01/03 04:36:32;;;;;;;13.87;2.90;;;9.30;99.90;;;;;;5084666;28;20228;-60
2024/01/03 04:39:01;;;;;;;14.27;3.20;;;9.40;99.90;;;;;;5089686;28;20322;-59
2024/01/03 04:41:31;;;;;;;11.57;2.77;;;9.40;99.90;;;;;;5086412;28;20619;-59
2024/01/03 04:44:00;;;;;;;9.47;3.10;;;9.30;99.90;;;;;;5085941;28;20199;-59
2024/01/03 04:46:28;;;;;;;8.87;2.60;;;9.30;99.90;;;;;;5088378;28;20223;-59
2024/01/03 04:48:56;;;;;;;10.00;2.40;;;9.30;99.90;;;;;;5085805;28;20211;-59
2024/01/03 04:51:25;;;;;;;8.87;2.40;;;9.30;99.90;;;;;;5085916;28;20227;-59
2024/01/03 04:53:53;;;;;;;3.13;1.93;;;9.20;99.90;;;;;;5086721;27;20254;-59
2024/01/03 04:56:24;;;;;;;15.03;2.60;;;9.20;99.90;;;;;;5085545;28;20233;-59
2024/01/03 04:58:54;;;;;;;6.93;1.93;;;9.20;99.90;;;;;;5087492;28;20199;-60
2024/01/03 05:01:22;;;;;;;6.10;2.23;;;9.20;99.90;;;;;;5082479;28;20219;-59
2024/01/03 05:03:51;;;;;;;11.87;3.33;;;9.20;99.90;;;;;;5081649;28;20228;-59
2024/01/03 05:06:19;;;;;;;14.67;3.03;;;9.20;99.90;;;;;;5083358;28;20226;-59
2024/01/03 05:08:47;;;;;;;18.87;3.40;;;9.20;99.90;;;;;;5088460;28;20760;-59
2024/01/03 05:11:16;;;;;;;19.67;3.10;;;9.30;99.90;;;;;;5082994;28;20196;-59
2024/01/03 05:13:45;;;;;;;24.40;3.40;;;9.40;99.90;;;;;;5083342;28;20275;-60
2024/01/03 05:16:15;;;;;;;14.87;2.83;;;9.50;99.90;;;;;;5082894;28;20220;-58
2024/01/03 05:18:43;;;;;;;17.67;3.00;;;9.50;99.90;;;;;;5083953;28;20697;-59
2024/01/03 05:21:12;;;;;;;20.13;3.40;;;9.50;99.90;;;;;;5079930;28;20208;-59
2024/01/03 05:23:40;;;;;;;23.10;3.40;;;9.50;99.90;;;;;;5083375;28;20229;-58
2024/01/03 05:26:08;;;;;;;17.03;2.93;;;9.50;99.90;;;;;;5085817;28;20257;-59
2024/01/03 05:28:36;;;;;;;9.30;2.27;;;9.50;99.90;;;;;;5086090;28;20211;-59
2024/01/03 05:31:05;;;;;;;9.43;2.13;;;9.40;99.90;;;;;;5088216;28;20215;-59
2024/01/03 05:33:34;;;;;;;10.80;2.23;;;9.20;99.90;;;;;;5084611;28;20594;-59
2024/01/03 05:36:04;;;;;;;3.47;1.77;;;9.10;99.90;;;;;;5085459;28;20230;-59
2024/01/03 05:38:35;;;;;;;6.97;1.80;;;9.00;99.90;;;;;;5080078;28;20238;-59
2024/01/03 05:41:04;;;;;;;9.10;1.90;;;8.90;99.90;;;;;;5085773;28;20574;-59
2024/01/03 05:43:36;;;;;;;7.20;1.80;;;8.90;99.90;;;;;;5084266;28;20641;-59
2024/01/03 05:46:04;;;;;;;13.20;2.33;;;8.90;99.90;;;;;;5085678;28;20219;-59
2024/01/03 05:48:34;;;;;;;5.27;1.50;;;8.90;99.90;;;;;;5085965;27;20677;-59
2024/01/03 05:51:04;;;;;;;3.87;1.60;;;8.80;99.90;;;;;;5081775;27;20307;-59
2024/01/03 05:53:33;;;;;;;5.30;1.70;;;8.80;99.90;;;;;;5085490;28;20734;-59
2024/01/03 05:56:01;;;;;;;4.43;1.40;;;8.70;99.90;;;;;;5085274;28;20286;-59
2024/01/03 05:58:29;;;;;;;2.57;1.30;;;8.70;99.90;;;;;;5078772;28;20766;-59
2024/01/03 06:00:57;;;;;;;1.63;1.30;;;8.70;99.90;;;;;;5084232;28;20693;-59
2024/01/03 06:03:27;;;;;;;3.10;1.30;;;8.60;99.90;;;;;;5088614;28;20223;-59
2024/01/03 06:05:57;;;;;;;3.37;1.40;;;8.60;99.90;;;;;;5084382;28;20219;-58
2024/01/03 06:08:25;;;;;;;5.03;1.50;;;8.60;99.90;;;;;;5085861;28;20235;-59
2024/01/03 06:10:55;;;;;;;4.77;1.60;;;8.60;99.90;;;;;;5081425;28;20184;-59
2024/01/03 06:13:25;;;;;;;2.07;1.43;;;8.50;99.90;;;;;;5081293;28;20242;-60
2024/01/03 06:15:53;;;;;;;4.83;1.53;;;8.50;99.90;;;;;;5079554;28;20738;-59
2024/01/03 06:18:22;;;;;;;9.37;1.63;;;8.50;99.90;;;;;;5084259;28;20215;-59
2024/01/03 06:20:50;;;;;;;8.83;2.00;;;8.50;99.90;;;;;;5084481;28;20276;-59
2024/01/03 06:23:20;;;;;;;5.10;1.87;;;8.50;99.90;;;;;;5086864;28;20202;-59
2024/01/03 06:25:48;;;;;;;8.93;2.20;;;8.50;99.90;;;;;;5086898;28;20187;-59
2024/01/03 06:28:17;;;;;;;11.77;2.43;;;8.50;99.90;;;;;;5082298;28;20246;-59
2024/01/03 06:30:45;;;;;;;7.57;1.90;;;8.50;99.90;;;;;;5086492;28;20230;-59
2024/01/03 06:33:14;;;;;;;10.57;2.03;;;8.60;99.90;;;;;;5082315;28;20312;-59
2024/01/03 06:35:42;;;;;;;12.00;2.37;;;8.60;99.90;;;;;;5083125;28;20593;-59
2024/01/03 06:38:10;;;;;;;11.57;2.20;;;8.60;99.90;;;;;;5083069;28;20195;-59
2024/01/03 06:40:40;;;;;;;14.03;2.60;;;8.70;99.90;;;;;;5083038;28;20211;-59
2024/01/03 06:43:09;;;;;;;14.70;2.57;;;8.70;99.90;;;;;;5080963;28;20234;-59
2024/01/03 06:45:37;;;;;;;12.77;2.27;;;8.70;99.90;;;;;;5083203;28;20582;-59
2024/01/03 06:48:05;;;;;;;8.80;2.53;;;8.80;99.90;;;;;;5081795;28;20225;-60
2024/01/03 06:50:34;;;;;;;11.23;2.93;;;8.80;99.90;;;;;;5085170;28;20311;-60
2024/01/03 06:53:02;;;;;;;15.67;2.50;;;8.80;99.90;;;;;;5086452;28;20202;-59
2024/01/03 06:55:30;;;;;;;22.10;3.13;;;8.80;99.90;;;;;;5081624;28;20195;-60
2024/01/03 06:58:00;;;;;;;11.07;2.50;;;8.90;99.90;;;;;;5081366;28;20682;-59
2024/01/03 07:00:28;;;;;;;14.73;3.03;;;8.90;99.90;;;;;;5086459;28;20227;-59
2024/01/03 07:02:57;;;;;;;14.23;2.47;;;8.90;99.90;;;;;;5082636;28;20223;-59
2024/01/03 07:05:25;;;;;;;15.63;3.70;;;8.90;99.90;;;;;;5086269;28;20227;-59
2024/01/03 07:07:54;;;;;;;12.20;3.00;;;8.90;99.90;;;;;;5078550;28;20534;-59
2024/01/03 07:10:22;;;;;;;13.03;2.83;;;8.90;99.90;;;;;;5086338;28;20235;-59
2024/01/03 07:12:50;;;;;;;15.73;2.70;;;9.00;99.90;;;;;;5083204;28;20228;-59
2024/01/03 07:15:20;;;;;;;22.43;3.87;;;9.00;99.90;;;;;;5085117;28;20219;-59
2024/01/03 07:17:48;;;;;;;14.00;3.13;;;9.00;99.90;;;;;;5089768;28;20230;-59
2024/01/03 07:20:17;;;;;;;15.63;2.90;;;9.00;99.90;;;;;;5084441;28;20204;-60
2024/01/03 07:22:45;;;;;;;21.30;3.23;;;9.00;99.90;;;;;;5086573;28;20195;-59
2024/01/03 07:25:14;;;;;;;16.37;3.37;;;9.00;99.90;;;;;;5084607;28;20219;-59
2024/01/03 07:27:42;;;;;;;16.67;2.90;;;9.00;99.90;;;;;;5081500;28;20224;-60
2024/01/03 07:30:11;;;;;;;19.20;3.47;;;9.00;99.90;;;;;;5079426;28;20215;-59
2024/01/03 07:32:41;;;;;;;13.40;3.40;;;9.00;99.90;;;;;;5082956;28;20219;-59
2024/01/03 07:35:10;;;;;;;14.13;3.23;;;9.10;99.90;;;;;;5081388;28;20192;-59
2024/01/03 07:37:38;;;;;;;16.90;3.37;;;9.10;99.90;;;;;;5080706;28;20533;-60
2024/01/03 07:40:08;;;;;;;17.03;3.67;;;9.10;99.90;;;;;;5086911;28;20225;-59
2024/01/03 07:42:36;;;;;;;21.30;3.20;;;9.20;99.90;;;;;;5083062;28;20226;-59
2024/01/03 07:45:05;;;;;;;14.87;3.60;;;9.30;99.90;;;;;;5087158;28;20211;-59
2024/01/03 07:47:33;;;;;;;20.70;3.60;;;9.30;99.90;;;;;;5088970;28;20219;-60
2024/01/03 07:50:03;;;;;;;22.63;3.70;;;9.30;99.90;;;;;;5086943;28;20593;-57
2024/01/03 07:52:31;;;;;;;20.13;3.77;;;9.30;99.90;;;;;;5085782;28;20206;-59
2024/01/03 07:54:59;;;;;;;15.63;3.33;;;9.30;99.90;;;;;;5085573;28;20216;-59
2024/01/03 07:57:27;;;;;;;18.93;3.50;;;9.30;99.90;;;;;;5085820;28;20238;-59
2024/01/03 07:59:55;;;;;;;22.40;4.43;;;9.40;99.90;;;;;;5081538;28;20223;-60
2024/01/03 08:02:24;;;;;;;24.57;3.47;;;9.40;99.90;;;;;;5083831;28;20561;-59
2024/01/03 08:04:52;;;;;;;24.17;4.10;;;9.40;99.90;;;;;;5083029;28;20593;-59
2024/01/03 08:07:22;;;;;;;30.10;4.00;;;9.30;99.90;;;;;;5082494;28;20701;-59
2024/01/03 08:09:50;;;;;;;23.43;3.73;;;9.40;99.90;;;;;;5082239;28;20298;-59
2024/01/03 08:12:19;;;;;;;25.73;4.30;;;9.40;99.90;;;;;;5086453;28;20222;-60
2024/01/03 08:14:47;;;;;;;21.60;3.80;;;9.40;99.90;;;;;;5086677;28;20219;-60
2024/01/03 08:17:16;;;;;;;27.17;3.90;;;9.40;99.90;;;;;;5082041;28;20192;-59
2024/01/03 08:19:44;;;;;;;22.03;4.90;;;9.40;99.90;;;;;;5096765;28;20206;-60
2024/01/03 08:22:13;;;;;;;25.57;5.07;;;9.40;99.90;;;;;;5080021;28;20223;-59
2024/01/03 08:24:42;;;;;;;28.67;3.80;;;9.30;99.90;;;;;;5080990;28;20227;-59
2024/01/03 08:27:11;;;;;;;33.00;5.13;;;9.30;99.90;;;;;;5082286;28;20230;-59
2024/01/03 08:29:39;;;;;;;21.90;4.33;;;9.30;99.90;;;;;;5083963;28;20728;-60
2024/01/03 08:32:08;;;;;;;34.60;5.07;;;9.30;99.90;;;;;;5083998;28;20198;-59
2024/01/03 08:34:36;;;;;;;36.83;4.87;;;9.30;99.90;;;;;;5086934;28;20195;-60
2024/01/03 08:37:04;;;;;;;30.53;4.33;;;9.40;99.90;;;;;;5085503;28;20223;-59
2024/01/03 08:39:32;;;;;;;28.20;4.67;;;9.40;99.90;;;;;;5083623;28;20227;-59
2024/01/03 08:42:02;;;;;;;24.40;4.47;;;9.40;99.90;;;;;;5084435;28;20241;-60
2024/01/03 08:44:31;;;;;;;27.83;4.37;;;9.40;99.90;;;;;;5082142;28;20570;-59
2024/01/03 08:46:59;;;;;;;32.00;4.03;;;9.30;99.90;;;;;;5080869;28;20192;-59
2024/01/03 08:49:27;;;;;;;26.37;4.10;;;9.30;99.90;;;;;;5082777;28;20211;-60
2024/01/03 08:51:57;;;;;;;23.50;4.00;;;9.30;99.90;;;;;;5083464;28;20607;-60
2024/01/03 08:54:26;;;;;;;30.37;4.03;;;9.40;99.90;;;;;;5083550;28;20223;-60
2024/01/03 08:56:54;;;;;;;36.50;4.53;;;9.40;99.90;;;;;;5080512;28;20219;-59
2024/01/03 08:59:24;;;;;;;26.40;4.33;;;9.40;99.90;;;;;;5081345;28;20576;-60
2024/01/03 09:01:53;;;;;;;29.90;3.83;;;9.40;99.90;;;;;;5081431;28;20211;-59
2024/01/03 09:04:21;;;;;;;18.97;3.30;;;9.40;99.90;;;;;;5080549;28;20227;-59
2024/01/03 09:06:51;;;;;;;21.87;3.93;;;9.40;99.90;;;;;;5081599;28;20666;-60
2024/01/03 09:09:19;;;;;;;29.10;3.63;;;9.50;99.90;;;;;;5085225;28;20577;-59
2024/01/03 09:11:47;;;;;;;16.10;4.20;;;9.50;99.90;;;;;;5078664;28;20281;-59
2024/01/03 09:14:16;;;;;;;26.53;4.30;;;9.50;99.90;;;;;;5076699;28;20192;-59
2024/01/03 09:16:45;;;;;;;17.10;3.30;;;9.50;99.90;;;;;;5086671;28;20196;-60
2024/01/03 09:19:14;;;;;;;16.87;3.43;;;9.50;99.90;;;;;;5077360;28;20222;-59
2024/01/03 09:21:46;;;;;;;20.23;3.77;;;9.50;99.90;;;;;;5076734;28;20287;-60
2024/01/03 09:24:14;;;;;;;21.00;3.30;;;9.50;99.90;;;;;;5076691;28;20219;-59
2024/01/03 09:26:42;;;;;;;21.20;3.30;;;9.60;99.90;;;;;;5082787;28;20227;-59
2024/01/03 09:29:10;;;;;;;13.37;3.20;;;9.60;99.90;;;;;;5081673;28;20286;-59
2024/01/03 09:31:43;;;;;;;20.97;3.47;;;9.60;99.90;;;;;;5085408;28;20190;-60
2024/01/03 09:34:13;;;;;;;20.67;3.23;;;9.60;99.90;;;;;;5082243;28;20219;-60
2024/01/03 09:36:41;;;;;;;17.17;3.30;;;9.60;99.90;;;;;;5075597;28;20716;-60
2024/01/03 09:39:10;;;;;;;16.63;3.07;;;9.60;99.90;;;;;;5078358;28;20231;-61
2024/01/03 09:41:39;;;;;;;18.83;4.77;;;9.60;99.90;;;;;;5084801;28;20244;-60
2024/01/03 09:44:08;;;;;;;19.07;3.53;;;9.60;99.90;;;;;;5081179;28;20184;-59
2024/01/03 09:46:37;;;;;;;14.00;3.70;;;9.60;99.90;;;;;;5085127;28;20237;-60
2024/01/03 09:49:05;;;;;;;18.17;2.90;;;9.60;99.90;;;;;;5081951;28;20215;-60
2024/01/03 09:51:35;;;;;;;19.17;3.27;;;9.60;99.90;;;;;;5075512;28;20227;-59
2024/01/03 09:54:07;;;;;;;10.50;2.87;;;9.50;99.90;;;;;;5078016;28;20566;-59
2024/01/03 09:56:38;;;;;;;19.27;3.40;;;9.50;99.90;;;;;;5075505;28;20239;-60
2024/01/03 09:59:08;;;;;;;18.30;3.80;;;9.40;99.90;;;;;;5079512;28;20747;-59
2024/01/03 10:01:37;;;;;;;12.93;3.20;;;9.40;99.90;;;;;;5079963;28;20429;-59
2024/01/03 10:04:06;;;;;;;14.67;3.03;;;9.40;99.90;;;;;;5079206;28;20228;-60
2024/01/03 10:06:53;;;;;;;14.97;3.67;;;9.40;99.90;;;;;;5082270;28;20228;-59
2024/01/03 10:09:22;;;;;;;27.67;3.60;;;9.50;99.90;;;;;;5082978;28;20227;-59
2024/01/03 10:11:52;;;;;;;18.77;3.50;;;9.60;99.90;;;;;;5074170;28;22217;-59
2024/01/03 10:14:22;;;;;;;13.23;2.87;;;9.70;99.90;;;;;;5074945;28;21372;-60
2024/01/03 10:16:51;;;;;;;17.77;3.80;;;9.90;99.90;;;;;;5081074;28;20203;-60
2024/01/03 10:19:22;;;;;;;20.23;3.90;;;10.00;99.90;;;;;;5084668;28;20226;-60
2024/01/03 10:21:53;;;;;;;21.53;3.60;;;10.10;99.90;;;;;;5086920;28;20219;-60
2024/01/03 10:24:23;;;;;;;22.23;3.87;;;10.20;99.90;;;;;;5081747;28;20707;-59
2024/01/03 10:26:52;;;;;;;14.27;3.73;;;10.30;99.90;;;;;;5074952;28;20233;-60
2024/01/03 10:29:22;;;;;;;22.00;3.30;;;10.30;99.90;;;;;;5077843;28;20295;-59
2024/01/03 10:31:51;;;;;;;17.70;3.70;;;10.20;99.90;;;;;;5079773;28;20191;-60
2024/01/03 10:34:22;;;;;;;17.10;3.20;;;10.20;99.90;;;;;;5077121;28;20223;-59
2024/01/03 10:36:56;;;;;;;19.03;3.33;;;10.20;99.90;;;;;;5081020;28;20233;-60
2024/01/03 10:39:25;;;;;;;17.60;3.33;;;10.30;99.90;;;;;;5078126;28;20586;-59
2024/01/03 10:41:54;;;;;;;15.50;3.47;;;10.30;99.90;;;;;;5078782;28;20235;-60
2024/01/03 10:44:23;;;;;;;13.23;3.23;;;10.30;99.90;;;;;;5081847;28;20227;-59
2024/01/03 10:46:54;;;;;;;16.17;3.10;;;10.30;99.90;;;;;;5079105;28;20534;-59
2024/01/03 10:49:23;;;;;;;21.07;3.47;;;10.30;99.90;;;;;;5083483;28;20226;-60
2024/01/03 10:52:01;;;;;;;13.97;3.57;;;10.30;99.90;;;;;;5077313;28;20211;-60
2024/01/03 10:54:40;;;;;;;21.70;3.50;;;10.30;99.90;;;;;;5076374;28;20240;-60
2024/01/03 10:57:10;;;;;;;14.03;3.03;;;10.20;99.90;;;;;;5082729;28;20228;-59
2024/01/03 11:00:07;;;;;;;14.73;3.17;;;10.20;99.90;;;;;;5085327;28;20211;-60
2024/01/03 11:02:40;;;;;;;21.67;3.47;;;10.20;99.90;;;;;;5081120;28;20231;-59
2024/01/03 11:05:18;;;;;;;16.03;3.43;;;10.30;99.90;;;;;;5079411;28;20230;-59
2024/01/03 11:07:53;;;;;;;14.97;3.10;;;10.30;99.90;;;;;;5081648;28;20207;-60
2024/01/03 11:10:51;;;;;;;18.53;3.50;;;10.30;99.90;;;;;;5079847;28;20246;-60
2024/01/03 11:13:27;;;;;;;19.27;3.20;;;10.40;99.90;;;;;;5081169;28;20729;-60
2024/01/03 11:15:55;;;;;;;18.10;3.53;;;10.50;99.90;;;;;;5081843;28;20214;-60
2024/01/03 11:18:55;;;;;;;24.97;3.63;;;10.60;99.90;;;;;;5082864;28;20229;-60
2024/01/03 11:21:43;;;;;;;20.37;2.83;;;10.70;99.90;;;;;;5082709;27;20448;-60
2024/01/03 11:24:46;;;;;;;18.33;3.80;;;10.80;99.90;;;;;;5074593;28;20228;-60
2024/01/03 11:27:23;;;;;;;16.50;3.33;;;10.90;99.90;;;;;;5085004;28;20267;-60
2024/01/03 11:29:57;;;;;;;19.50;3.17;;;10.90;99.90;;;;;;5079093;28;20215;-60
2024/01/03 11:32:27;;;;;;;20.47;3.30;;;10.90;99.90;;;;;;5081457;28;20227;-60
2024/01/03 11:34:55;;;;;;;16.70;3.27;;;10.90;99.90;;;;;;5079962;28;20835;-60
2024/01/03 11:37:38;;;;;;;15.43;3.10;;;11.00;99.90;;;;;;5079883;28;20689;-60
2024/01/03 11:40:19;;;;;;;13.10;2.63;;;11.10;99.90;;;;;;5081514;28;20216;-60
2024/01/03 11:42:48;;;;;;;17.77;3.30;;;11.00;99.90;;;;;;5080462;28;20586;-60
2024/01/03 11:45:17;;;;;;;20.93;3.50;;;11.00;99.90;;;;;;5084602;28;20223;-60
2024/01/03 11:47:48;;;;;;;20.43;3.47;;;11.00;99.90;;;;;;5079024;28;20224;-60
2024/01/03 11:50:17;;;;;;;14.10;3.40;;;10.90;99.90;;;;;;5078397;28;20184;-60
2024/01/03 11:52:48;;;;;;;15.77;2.63;;;10.90;99.90;;;;;;5078479;28;20283;-60
2024/01/03 11:55:19;;;;;;;17.13;3.17;;;10.80;99.90;;;;;;5077366;28;20224;-60
2024/01/03 11:57:48;;;;;;;13.10;3.00;;;10.70;99.90;;;;;;5083980;28;20222;-60
2024/01/03 12:00:20;;;;;;;12.73;3.10;;;10.50;99.90;;;;;;5076389;28;20234;-60
2024/01/03 12:02:53;;;;;;;13.27;2.97;;;10.40;99.90;;;;;;5077834;28;20228;-60
2024/01/03 12:05:22;;;;;;;10.63;2.63;;;10.40;99.90;;;;;;5076524;28;20274;-60
2024/01/03 12:07:53;;;;;;;15.77;3.63;;;10.40;99.90;;;;;;5082560;28;20957;-60
2024/01/03 12:10:24;;;;;;;15.67;2.83;;;10.40;99.90;;;;;;5084378;28;20219;-60
2024/01/03 12:12:53;;;;;;;12.47;2.90;;;10.40;99.90;;;;;;5084024;28;20222;-59
2024/01/03 12:15:25;;;;;;;10.87;2.97;;;10.40;99.90;;;;;;5086887;28;20220;-60
2024/01/03 12:18:14;;;;;;;11.43;2.43;;;10.50;99.90;;;;;;5090777;28;20223;-60
2024/01/03 12:20:42;;;;;;;6.90;2.30;;;10.50;99.90;;;;;;5077548;28;20241;-60
2024/01/03 12:23:14;;;;;;;13.63;2.73;;;10.50;99.90;;;;;;5084348;28;20663;-61
2024/01/03 12:25:45;;;;;;;5.67;2.07;;;10.60;99.90;;;;;;5086614;28;20515;-60
2024/01/03 12:28:20;;;;;;;6.33;2.07;;;10.60;99.90;;;;;;5087735;28;20535;-60
2024/01/03 12:30:50;;;;;;;12.43;2.73;;;10.70;99.90;;;;;;5085344;28;20223;-60
2024/01/03 12:33:19;;;;;;;9.63;2.47;;;10.70;99.90;;;;;;5082073;28;20314;-60
2024/01/03 12:35:48;;;;;;;9.27;2.67;;;10.60;99.90;;;;;;5083324;28;20639;-60
2024/01/03 12:38:17;;;;;;;10.70;2.90;;;10.60;99.90;;;;;;5083294;28;20266;-61
2024/01/03 12:40:47;;;;;;;17.30;2.90;;;10.60;99.90;;;;;;5081858;28;20206;-60
2024/01/03 12:43:15;;;;;;;15.37;3.10;;;10.70;99.90;;;;;;5085212;28;20259;-60
2024/01/03 12:45:47;;;;;;;9.60;3.30;;;10.70;99.90;;;;;;5086081;28;20589;-60
2024/01/03 12:48:16;;;;;;;15.90;2.80;;;10.70;99.90;;;;;;5082801;28;20229;-60
2024/01/03 12:50:45;;;;;;;14.57;3.20;;;10.70;99.90;;;;;;5086290;28;20314;-60
2024/01/03 12:53:13;;;;;;;11.57;3.30;;;10.70;99.90;;;;;;5076510;28;20260;-60
2024/01/03 12:55:41;;;;;;;13.20;2.93;;;10.70;99.90;;;;;;5081849;28;20485;-60
2024/01/03 12:58:11;;;;;;;16.23;3.07;;;10.60;99.90;;;;;;5077538;28;20693;-61